Aérodrome :
LOGIN :

S'inscrire | Disclaimer

   EN    FR    IT 

 










Légende :    VFR   VFR Marginal   IFR   IFR Intensif   IFR Très Intensif
Visi : 
Plafond : 
>= 8 km
>= 3000ft
5 à 8 km
1000 à 3000 ft
1500m à 5 km
500 à 1000 ft
800 à 1500m
200 à 500 ft
< 800m
< 200 ft
Symboles :   Orages  Brouillard  Fortes neiges  Fortes précipitations  Vent > 20 kt
SIGMETs :   Divers  Orages  Givrage  Turbulence  Onde Orograph.  Cendres Volcan.







- Altitude de l'aérodrome : 157 ft
- Code IATA : LIL
- Voir les cartes d'approche


LFQQ - Lille Lesquin

DERNIER METAR :
  • 280800Z AUTO 32007KT 270V350 9999 FEW012 SCT018 BKN032 09/06 Q1015 TEMPO 4000 SHRA BKN008

METARs EXPIRÉS :
  • 280730Z AUTO 29006KT 9000 FEW020 BKN033 OVC064 08/06 Q1015 TEMPO 4000 SHRA BKN008
  • 280700Z AUTO 31005KT 280V340 8000 FEW010 BKN020 BKN027 07/06 Q1015 TEMPO 4000 SHRA BKN008
  • 280630Z AUTO 29007KT 4300 -RA BR FEW016 SCT027 BKN034 07/06 Q1015 TEMPO SHRA BKN008
  • 280600Z AUTO 26003KT 7000 FEW016 BKN054 BKN076 07/05 Q1014 TEMPO 4000 SHRA BKN008
  • 280530Z AUTO 26003KT 7000 NSC 06/05 Q1015 TEMPO 4000 SHRA BKN008

TAF TAF LFQQ
Valide du 28 à 06h jusqu'au 29 à 12h UTC


280500Z 2806/2912 26005KT 9999 BKN040
TEMPO 2806/2812 4000 SHRA BKN013
PROB30
TEMPO 2806/2810 BKN008
BECMG 2812/2814 33010KT
BECMG 2818/2820 VRB02KT
ATIS : +33 3 20 16 19 54
Pas de NOTAMs connus pour ce terrain.



MET'MAP, la Météo Aéronautique d'un coup d'oeil ! - Copyright ORBIFLY Décembre 2007 - Disclaimer

ORBIFLY MET'MAP TEAM :

Programmation & Développement : Alexandra Zaïnal
Conception & Développement : Baudouin d'Aumeries
Co-Programmation & Développement : Marc-Olivier Méhu
Soutien technique & logistique : Manuel Goepfert

Contact : metmap@orbifly.com




SOURCES & CREDITS :

   NOAA